sensor_id;sensor_type;location;lat;lon;timestamp;temperature;humidity
36450;DHT22;22475;51.390;7.180;2023-10-31T00:02:12;16.30;96.20
36450;DHT22;22475;51.390;7.180;2023-10-31T00:04:39;16.30;96.20
36450;DHT22;22475;51.390;7.180;2023-10-31T00:07:07;16.20;96.20
36450;DHT22;22475;51.390;7.180;2023-10-31T00:09:34;16.30;96.20
36450;DHT22;22475;51.390;7.180;2023-10-31T00:12:01;16.30;96.10
36450;DHT22;22475;51.390;7.180;2023-10-31T00:14:27;16.30;96.10
36450;DHT22;22475;51.390;7.180;2023-10-31T00:16:54;16.20;96.00
36450;DHT22;22475;51.390;7.180;2023-10-31T00:19:21;16.20;96.00
36450;DHT22;22475;51.390;7.180;2023-10-31T00:21:48;16.20;96.00
36450;DHT22;22475;51.390;7.180;2023-10-31T00:24:16;16.20;96.00
36450;DHT22;22475;51.390;7.180;2023-10-31T00:26:42;16.20;96.00
36450;DHT22;22475;51.390;7.180;2023-10-31T00:29:09;16.20;96.00
36450;DHT22;22475;51.390;7.180;2023-10-31T00:31:36;16.20;95.90
36450;DHT22;22475;51.390;7.180;2023-10-31T00:34:06;16.20;95.90
36450;DHT22;22475;51.390;7.180;2023-10-31T00:36:33;16.20;95.80
36450;DHT22;22475;51.390;7.180;2023-10-31T00:39:00;16.20;95.80
36450;DHT22;22475;51.390;7.180;2023-10-31T00:41:28;16.20;95.80
36450;DHT22;22475;51.390;7.180;2023-10-31T00:43:54;16.20;95.70
36450;DHT22;22475;51.390;7.180;2023-10-31T00:46:21;16.10;95.60
36450;DHT22;22475;51.390;7.180;2023-10-31T00:48:48;16.20;95.70
36450;DHT22;22475;51.390;7.180;2023-10-31T00:51:15;16.10;95.70
36450;DHT22;22475;51.390;7.180;2023-10-31T00:53:41;16.10;95.70
36450;DHT22;22475;51.390;7.180;2023-10-31T00:56:08;16.10;95.70
36450;DHT22;22475;51.390;7.180;2023-10-31T00:58:36;16.10;95.70
36450;DHT22;22475;51.390;7.180;2023-10-31T01:01:03;16.10;95.70
36450;DHT22;22475;51.390;7.180;2023-10-31T01:03:30;16.10;95.70
36450;DHT22;22475;51.390;7.180;2023-10-31T01:05:56;16.20;95.70
36450;DHT22;22475;51.390;7.180;2023-10-31T01:08:23;16.10;95.60
36450;DHT22;22475;51.390;7.180;2023-10-31T01:10:50;16.10;95.60
36450;DHT22;22475;51.390;7.180;2023-10-31T01:13:17;16.10;95.60
36450;DHT22;22475;51.390;7.180;2023-10-31T01:15:45;16.10;95.60
36450;DHT22;22475;51.390;7.180;2023-10-31T01:18:12;16.10;95.60
36450;DHT22;22475;51.390;7.180;2023-10-31T01:20:39;16.10;95.60
36450;DHT22;22475;51.390;7.180;2023-10-31T01:23:06;16.10;95.60
36450;DHT22;22475;51.390;7.180;2023-10-31T01:25:32;16.10;95.60
36450;DHT22;22475;51.390;7.180;2023-10-31T01:27:59;16.10;95.60
36450;DHT22;22475;51.390;7.180;2023-10-31T01:30:26;16.10;95.60
36450;DHT22;22475;51.390;7.180;2023-10-31T01:32:54;16.10;95.60
36450;DHT22;22475;51.390;7.180;2023-10-31T01:35:21;16.10;95.60
36450;DHT22;22475;51.390;7.180;2023-10-31T01:37:47;16.10;95.60
36450;DHT22;22475;51.390;7.180;2023-10-31T01:40:14;16.10;95.60
36450;DHT22;22475;51.390;7.180;2023-10-31T01:42:41;16.10;95.60
36450;DHT22;22475;51.390;7.180;2023-10-31T01:45:08;16.10;95.60
36450;DHT22;22475;51.390;7.180;2023-10-31T01:47:35;16.10;95.60
36450;DHT22;22475;51.390;7.180;2023-10-31T01:50:04;16.10;95.60
36450;DHT22;22475;51.390;7.180;2023-10-31T01:52:32;16.10;95.60
36450;DHT22;22475;51.390;7.180;2023-10-31T01:55:01;16.10;95.60
36450;DHT22;22475;51.390;7.180;2023-10-31T01:57:29;16.10;95.60
36450;DHT22;22475;51.390;7.180;2023-10-31T01:59:56;16.10;95.60
36450;DHT22;22475;51.390;7.180;2023-10-31T02:02:23;16.10;95.60
36450;DHT22;22475;51.390;7.180;2023-10-31T02:04:50;16.10;95.60
36450;DHT22;22475;51.390;7.180;2023-10-31T02:07:19;16.10;95.60
36450;DHT22;22475;51.390;7.180;2023-10-31T02:09:45;16.10;95.60
36450;DHT22;22475;51.390;7.180;2023-10-31T02:12:31;16.10;95.50
36450;DHT22;22475;51.390;7.180;2023-10-31T02:14:58;16.10;95.50
36450;DHT22;22475;51.390;7.180;2023-10-31T02:17:24;16.10;95.50
36450;DHT22;22475;51.390;7.180;2023-10-31T02:19:51;16.10;95.50
36450;DHT22;22475;51.390;7.180;2023-10-31T02:22:19;16.10;95.60
36450;DHT22;22475;51.390;7.180;2023-10-31T02:24:46;16.10;95.60
36450;DHT22;22475;51.390;7.180;2023-10-31T02:27:13;16.10;95.60
36450;DHT22;22475;51.390;7.180;2023-10-31T02:29:40;16.10;95.60
36450;DHT22;22475;51.390;7.180;2023-10-31T02:32:06;16.10;95.60
36450;DHT22;22475;51.390;7.180;2023-10-31T02:34:33;16.10;95.60
36450;DHT22;22475;51.390;7.180;2023-10-31T02:37:00;16.00;95.60
36450;DHT22;22475;51.390;7.180;2023-10-31T02:39:28;16.10;95.60
36450;DHT22;22475;51.390;7.180;2023-10-31T02:41:55;16.10;95.60
36450;DHT22;22475;51.390;7.180;2023-10-31T02:44:21;16.10;95.60
36450;DHT22;22475;51.390;7.180;2023-10-31T02:46:48;16.10;95.60
36450;DHT22;22475;51.390;7.180;2023-10-31T02:49:15;16.10;95.60
36450;DHT22;22475;51.390;7.180;2023-10-31T02:51:42;16.10;95.60
36450;DHT22;22475;51.390;7.180;2023-10-31T02:54:08;16.10;95.60
36450;DHT22;22475;51.390;7.180;2023-10-31T02:56:37;16.10;95.60
36450;DHT22;22475;51.390;7.180;2023-10-31T02:59:03;16.00;95.60
36450;DHT22;22475;51.390;7.180;2023-10-31T03:01:30;16.10;95.60
36450;DHT22;22475;51.390;7.180;2023-10-31T03:03:57;16.10;95.60
36450;DHT22;22475;51.390;7.180;2023-10-31T03:06:24;16.10;95.60
36450;DHT22;22475;51.390;7.180;2023-10-31T03:08:50;16.00;95.60
36450;DHT22;22475;51.390;7.180;2023-10-31T03:11:21;16.10;96.00
36450;DHT22;22475;51.390;7.180;2023-10-31T03:13:49;16.10;95.70
36450;DHT22;22475;51.390;7.180;2023-10-31T03:16:16;16.10;95.70
36450;DHT22;22475;51.390;7.180;2023-10-31T03:18:43;16.10;95.60
36450;DHT22;22475;51.390;7.180;2023-10-31T03:21:09;16.00;95.60
36450;DHT22;22475;51.390;7.180;2023-10-31T03:23:36;16.00;95.60
36450;DHT22;22475;51.390;7.180;2023-10-31T03:26:03;16.00;95.60
36450;DHT22;22475;51.390;7.180;2023-10-31T03:28:30;16.00;95.60
36450;DHT22;22475;51.390;7.180;2023-10-31T03:30:58;16.10;95.60
36450;DHT22;22475;51.390;7.180;2023-10-31T03:33:24;16.00;95.90
36450;DHT22;22475;51.390;7.180;2023-10-31T03:35:51;16.00;95.60
36450;DHT22;22475;51.390;7.180;2023-10-31T03:38:18;16.00;95.60
36450;DHT22;22475;51.390;7.180;2023-10-31T03:40:45;16.00;95.60
36450;DHT22;22475;51.390;7.180;2023-10-31T03:43:11;16.00;95.60
36450;DHT22;22475;51.390;7.180;2023-10-31T03:45:38;16.00;95.70
36450;DHT22;22475;51.390;7.180;2023-10-31T03:48:06;16.00;95.60
36450;DHT22;22475;51.390;7.180;2023-10-31T03:50:33;16.00;95.60
36450;DHT22;22475;51.390;7.180;2023-10-31T03:53:00;16.00;95.60
36450;DHT22;22475;51.390;7.180;2023-10-31T03:55:27;16.00;95.60
36450;DHT22;22475;51.390;7.180;2023-10-31T03:57:55;16.00;95.60
36450;DHT22;22475;51.390;7.180;2023-10-31T04:00:22;16.00;95.60
36450;DHT22;22475;51.390;7.180;2023-10-31T04:02:49;16.00;95.60
36450;DHT22;22475;51.390;7.180;2023-10-31T04:05:17;16.00;95.60
36450;DHT22;22475;51.390;7.180;2023-10-31T04:07:45;16.00;95.60
36450;DHT22;22475;51.390;7.180;2023-10-31T04:10:12;16.00;95.60
36450;DHT22;22475;51.390;7.180;2023-10-31T04:12:39;16.00;95.60
36450;DHT22;22475;51.390;7.180;2023-10-31T04:15:07;16.00;95.60
36450;DHT22;22475;51.390;7.180;2023-10-31T04:17:34;16.00;95.60
36450;DHT22;22475;51.390;7.180;2023-10-31T04:20:01;15.90;95.90
36450;DHT22;22475;51.390;7.180;2023-10-31T04:22:30;15.90;95.60
36450;DHT22;22475;51.390;7.180;2023-10-31T04:24:56;15.90;95.60
36450;DHT22;22475;51.390;7.180;2023-10-31T04:27:23;16.00;95.60
36450;DHT22;22475;51.390;7.180;2023-10-31T04:29:50;15.90;95.50
36450;DHT22;22475;51.390;7.180;2023-10-31T04:32:17;15.90;95.50
36450;DHT22;22475;51.390;7.180;2023-10-31T04:34:43;15.90;95.60
36450;DHT22;22475;51.390;7.180;2023-10-31T04:37:10;15.90;95.60
36450;DHT22;22475;51.390;7.180;2023-10-31T04:39:38;15.90;95.60
36450;DHT22;22475;51.390;7.180;2023-10-31T04:42:05;15.90;95.60
36450;DHT22;22475;51.390;7.180;2023-10-31T04:44:32;15.90;95.60
36450;DHT22;22475;51.390;7.180;2023-10-31T04:46:58;15.90;95.60
36450;DHT22;22475;51.390;7.180;2023-10-31T04:49:25;15.90;95.60
36450;DHT22;22475;51.390;7.180;2023-10-31T04:51:52;15.90;95.60
36450;DHT22;22475;51.390;7.180;2023-10-31T04:54:19;15.90;95.70
36450;DHT22;22475;51.390;7.180;2023-10-31T04:56:48;15.90;95.60
36450;DHT22;22475;51.390;7.180;2023-10-31T04:59:15;15.90;95.70
36450;DHT22;22475;51.390;7.180;2023-10-31T05:01:48;15.90;95.60
36450;DHT22;22475;51.390;7.180;2023-10-31T05:04:15;15.90;95.70
36450;DHT22;22475;51.390;7.180;2023-10-31T05:06:42;15.90;95.70
36450;DHT22;22475;51.390;7.180;2023-10-31T05:09:10;15.90;95.70
36450;DHT22;22475;51.390;7.180;2023-10-31T05:11:37;15.90;95.70
36450;DHT22;22475;51.390;7.180;2023-10-31T05:14:06;15.90;95.70
36450;DHT22;22475;51.390;7.180;2023-10-31T05:16:39;15.90;95.70
36450;DHT22;22475;51.390;7.180;2023-10-31T05:19:06;15.90;95.70
36450;DHT22;22475;51.390;7.180;2023-10-31T05:21:32;15.90;95.70
36450;DHT22;22475;51.390;7.180;2023-10-31T05:24:00;15.90;95.60
36450;DHT22;22475;51.390;7.180;2023-10-31T05:26:27;15.90;95.70
36450;DHT22;22475;51.390;7.180;2023-10-31T05:28:54;15.90;95.70
36450;DHT22;22475;51.390;7.180;2023-10-31T05:31:23;15.90;95.60
36450;DHT22;22475;51.390;7.180;2023-10-31T05:33:50;15.90;95.60
36450;DHT22;22475;51.390;7.180;2023-10-31T05:36:18;15.90;95.60
36450;DHT22;22475;51.390;7.180;2023-10-31T05:38:45;15.90;95.50
36450;DHT22;22475;51.390;7.180;2023-10-31T05:41:12;15.90;95.60
36450;DHT22;22475;51.390;7.180;2023-10-31T05:43:38;15.90;95.60
36450;DHT22;22475;51.390;7.180;2023-10-31T05:46:05;15.90;95.90
36450;DHT22;22475;51.390;7.180;2023-10-31T05:48:33;15.90;95.60
36450;DHT22;22475;51.390;7.180;2023-10-31T05:51:00;15.90;95.60
36450;DHT22;22475;51.390;7.180;2023-10-31T05:53:27;15.90;95.60
36450;DHT22;22475;51.390;7.180;2023-10-31T05:55:54;15.90;95.60
36450;DHT22;22475;51.390;7.180;2023-10-31T05:58:20;15.90;95.60
36450;DHT22;22475;51.390;7.180;2023-10-31T06:00:47;15.90;95.60
36450;DHT22;22475;51.390;7.180;2023-10-31T06:03:14;15.90;95.60
36450;DHT22;22475;51.390;7.180;2023-10-31T06:05:42;15.90;95.60
36450;DHT22;22475;51.390;7.180;2023-10-31T06:08:10;15.90;95.60
36450;DHT22;22475;51.390;7.180;2023-10-31T06:10:37;15.90;95.60
36450;DHT22;22475;51.390;7.180;2023-10-31T06:13:04;15.90;95.60
36450;DHT22;22475;51.390;7.180;2023-10-31T06:15:31;15.90;95.70
36450;DHT22;22475;51.390;7.180;2023-10-31T06:17:57;15.90;95.60
36450;DHT22;22475;51.390;7.180;2023-10-31T06:20:26;15.90;95.70
36450;DHT22;22475;51.390;7.180;2023-10-31T06:22:54;15.90;95.70
36450;DHT22;22475;51.390;7.180;2023-10-31T06:25:21;15.90;95.60
36450;DHT22;22475;51.390;7.180;2023-10-31T06:27:47;15.90;95.60
36450;DHT22;22475;51.390;7.180;2023-10-31T06:30:15;15.90;95.60
36450;DHT22;22475;51.390;7.180;2023-10-31T06:32:41;15.90;95.60
36450;DHT22;22475;51.390;7.180;2023-10-31T06:35:07;15.90;95.60
36450;DHT22;22475;51.390;7.180;2023-10-31T06:37:34;15.90;95.60
36450;DHT22;22475;51.390;7.180;2023-10-31T06:40:03;15.90;95.60
36450;DHT22;22475;51.390;7.180;2023-10-31T06:42:30;15.90;95.60
36450;DHT22;22475;51.390;7.180;2023-10-31T06:44:57;15.90;95.60
36450;DHT22;22475;51.390;7.180;2023-10-31T06:47:23;15.90;95.60
36450;DHT22;22475;51.390;7.180;2023-10-31T06:49:50;15.90;95.60
36450;DHT22;22475;51.390;7.180;2023-10-31T06:52:17;15.90;95.60
36450;DHT22;22475;51.390;7.180;2023-10-31T06:54:44;15.90;95.60
36450;DHT22;22475;51.390;7.180;2023-10-31T06:57:12;15.90;95.60
36450;DHT22;22475;51.390;7.180;2023-10-31T06:59:38;15.90;95.60
36450;DHT22;22475;51.390;7.180;2023-10-31T07:02:05;15.90;95.60
36450;DHT22;22475;51.390;7.180;2023-10-31T07:04:32;15.90;95.60
36450;DHT22;22475;51.390;7.180;2023-10-31T07:06:59;15.90;95.60
36450;DHT22;22475;51.390;7.180;2023-10-31T07:09:26;15.90;95.60
36450;DHT22;22475;51.390;7.180;2023-10-31T07:11:53;15.90;95.70
36450;DHT22;22475;51.390;7.180;2023-10-31T07:14:21;15.90;95.70
36450;DHT22;22475;51.390;7.180;2023-10-31T07:16:48;15.90;95.70
36450;DHT22;22475;51.390;7.180;2023-10-31T07:19:15;15.90;96.00
36450;DHT22;22475;51.390;7.180;2023-10-31T07:21:41;15.90;95.60
36450;DHT22;22475;51.390;7.180;2023-10-31T07:24:09;15.90;95.60
36450;DHT22;22475;51.390;7.180;2023-10-31T07:26:35;15.90;95.60
36450;DHT22;22475;51.390;7.180;2023-10-31T07:29:02;15.90;95.60
36450;DHT22;22475;51.390;7.180;2023-10-31T07:31:30;15.90;95.60
36450;DHT22;22475;51.390;7.180;2023-10-31T07:33:57;15.90;95.60
36450;DHT22;22475;51.390;7.180;2023-10-31T07:36:24;15.90;95.60
36450;DHT22;22475;51.390;7.180;2023-10-31T07:38:50;15.80;95.50
36450;DHT22;22475;51.390;7.180;2023-10-31T07:41:17;15.90;95.60
36450;DHT22;22475;51.390;7.180;2023-10-31T07:43:44;15.90;95.50
36450;DHT22;22475;51.390;7.180;2023-10-31T07:46:11;15.90;95.50
36450;DHT22;22475;51.390;7.180;2023-10-31T07:48:39;15.90;95.50
36450;DHT22;22475;51.390;7.180;2023-10-31T07:51:05;15.90;95.50
36450;DHT22;22475;51.390;7.180;2023-10-31T07:53:32;15.80;95.50
36450;DHT22;22475;51.390;7.180;2023-10-31T07:55:59;15.90;95.50
36450;DHT22;22475;51.390;7.180;2023-10-31T07:58:26;15.90;95.50
36450;DHT22;22475;51.390;7.180;2023-10-31T08:00:52;15.80;95.50
36450;DHT22;22475;51.390;7.180;2023-10-31T08:03:19;15.80;95.50
36450;DHT22;22475;51.390;7.180;2023-10-31T08:05:47;15.80;95.50
36450;DHT22;22475;51.390;7.180;2023-10-31T08:08:14;15.80;95.50
36450;DHT22;22475;51.390;7.180;2023-10-31T08:10:41;15.80;95.50
36450;DHT22;22475;51.390;7.180;2023-10-31T08:13:07;15.90;95.50
36450;DHT22;22475;51.390;7.180;2023-10-31T08:15:34;15.90;95.50
36450;DHT22;22475;51.390;7.180;2023-10-31T08:18:01;15.80;95.50
36450;DHT22;22475;51.390;7.180;2023-10-31T08:20:28;15.80;95.50
36450;DHT22;22475;51.390;7.180;2023-10-31T08:22:59;15.80;95.50
36450;DHT22;22475;51.390;7.180;2023-10-31T08:25:27;15.80;95.50
36450;DHT22;22475;51.390;7.180;2023-10-31T08:27:54;15.90;95.40
36450;DHT22;22475;51.390;7.180;2023-10-31T08:30:20;15.80;95.40
36450;DHT22;22475;51.390;7.180;2023-10-31T08:32:47;15.90;95.40
36450;DHT22;22475;51.390;7.180;2023-10-31T08:35:14;15.80;95.30
36450;DHT22;22475;51.390;7.180;2023-10-31T08:37:41;15.80;95.30
36450;DHT22;22475;51.390;7.180;2023-10-31T08:40:09;15.80;95.30
36450;DHT22;22475;51.390;7.180;2023-10-31T08:42:36;15.80;95.40
36450;DHT22;22475;51.390;7.180;2023-10-31T08:45:04;15.80;95.40
36450;DHT22;22475;51.390;7.180;2023-10-31T08:47:30;15.80;95.40
36450;DHT22;22475;51.390;7.180;2023-10-31T08:49:57;15.80;95.40
36450;DHT22;22475;51.390;7.180;2023-10-31T08:52:24;15.80;95.40
36450;DHT22;22475;51.390;7.180;2023-10-31T08:54:51;15.80;95.50
36450;DHT22;22475;51.390;7.180;2023-10-31T08:57:19;15.80;95.50
36450;DHT22;22475;51.390;7.180;2023-10-31T08:59:45;15.80;95.40
36450;DHT22;22475;51.390;7.180;2023-10-31T09:02:12;15.80;95.40
36450;DHT22;22475;51.390;7.180;2023-10-31T09:04:39;15.80;95.40
36450;DHT22;22475;51.390;7.180;2023-10-31T09:07:06;15.80;95.40
36450;DHT22;22475;51.390;7.180;2023-10-31T09:09:32;15.80;95.40
36450;DHT22;22475;51.390;7.180;2023-10-31T09:11:59;15.80;95.40
36450;DHT22;22475;51.390;7.180;2023-10-31T09:14:27;15.80;95.40
36450;DHT22;22475;51.390;7.180;2023-10-31T09:16:54;15.80;95.40
36450;DHT22;22475;51.390;7.180;2023-10-31T09:19:21;15.80;95.30
36450;DHT22;22475;51.390;7.180;2023-10-31T09:21:48;15.80;95.30
36450;DHT22;22475;51.390;7.180;2023-10-31T09:24:15;15.80;95.30
36450;DHT22;22475;51.390;7.180;2023-10-31T09:26:42;15.80;95.30
36450;DHT22;22475;51.390;7.180;2023-10-31T09:29:10;15.80;95.30
36450;DHT22;22475;51.390;7.180;2023-10-31T09:31:38;15.80;95.30
36450;DHT22;22475;51.390;7.180;2023-10-31T09:34:05;15.80;95.40
36450;DHT22;22475;51.390;7.180;2023-10-31T09:36:33;15.80;95.30
36450;DHT22;22475;51.390;7.180;2023-10-31T09:39:00;15.80;95.30
36450;DHT22;22475;51.390;7.180;2023-10-31T09:41:26;15.80;95.30
36450;DHT22;22475;51.390;7.180;2023-10-31T09:43:53;15.80;95.40
36450;DHT22;22475;51.390;7.180;2023-10-31T09:46:21;15.80;95.30
36450;DHT22;22475;51.390;7.180;2023-10-31T09:48:49;15.80;95.30
36450;DHT22;22475;51.390;7.180;2023-10-31T09:51:17;15.80;95.30
36450;DHT22;22475;51.390;7.180;2023-10-31T09:53:45;15.80;95.30
36450;DHT22;22475;51.390;7.180;2023-10-31T09:56:14;15.80;95.40
36450;DHT22;22475;51.390;7.180;2023-10-31T09:58:42;15.80;95.40
36450;DHT22;22475;51.390;7.180;2023-10-31T10:01:09;15.80;95.40
36450;DHT22;22475;51.390;7.180;2023-10-31T10:03:36;15.80;95.40
36450;DHT22;22475;51.390;7.180;2023-10-31T10:06:05;15.80;95.30
36450;DHT22;22475;51.390;7.180;2023-10-31T10:08:37;15.80;95.30
36450;DHT22;22475;51.390;7.180;2023-10-31T10:11:04;15.80;95.30
36450;DHT22;22475;51.390;7.180;2023-10-31T10:13:31;15.80;95.30
36450;DHT22;22475;51.390;7.180;2023-10-31T10:15:59;15.80;95.30
36450;DHT22;22475;51.390;7.180;2023-10-31T10:18:26;15.80;95.30
36450;DHT22;22475;51.390;7.180;2023-10-31T10:20:58;15.80;95.30
36450;DHT22;22475;51.390;7.180;2023-10-31T10:23:26;15.80;95.30
36450;DHT22;22475;51.390;7.180;2023-10-31T10:25:55;15.80;95.30
36450;DHT22;22475;51.390;7.180;2023-10-31T10:28:22;15.80;95.30
36450;DHT22;22475;51.390;7.180;2023-10-31T10:30:50;15.80;95.30
36450;DHT22;22475;51.390;7.180;2023-10-31T10:33:18;15.90;95.40
36450;DHT22;22475;51.390;7.180;2023-10-31T10:35:45;15.80;95.30
36450;DHT22;22475;51.390;7.180;2023-10-31T10:38:13;15.80;95.30
36450;DHT22;22475;51.390;7.180;2023-10-31T10:40:43;15.80;95.30
36450;DHT22;22475;51.390;7.180;2023-10-31T10:43:14;15.80;95.30
36450;DHT22;22475;51.390;7.180;2023-10-31T10:45:43;15.80;95.30
36450;DHT22;22475;51.390;7.180;2023-10-31T10:48:12;15.90;95.30
36450;DHT22;22475;51.390;7.180;2023-10-31T10:50:42;15.80;95.30
36450;DHT22;22475;51.390;7.180;2023-10-31T10:53:14;15.80;95.30
36450;DHT22;22475;51.390;7.180;2023-10-31T10:55:45;15.80;95.40
36450;DHT22;22475;51.390;7.180;2023-10-31T10:58:20;15.90;95.40
36450;DHT22;22475;51.390;7.180;2023-10-31T11:00:50;15.80;95.40
36450;DHT22;22475;51.390;7.180;2023-10-31T11:03:17;15.80;95.40
36450;DHT22;22475;51.390;7.180;2023-10-31T11:05:46;15.80;95.40
36450;DHT22;22475;51.390;7.180;2023-10-31T11:08:14;15.80;95.40
36450;DHT22;22475;51.390;7.180;2023-10-31T11:10:41;15.80;95.40
36450;DHT22;22475;51.390;7.180;2023-10-31T11:13:10;15.90;95.40
36450;DHT22;22475;51.390;7.180;2023-10-31T11:15:38;15.80;95.40
36450;DHT22;22475;51.390;7.180;2023-10-31T11:18:05;15.80;95.40
36450;DHT22;22475;51.390;7.180;2023-10-31T11:20:32;15.90;95.50
36450;DHT22;22475;51.390;7.180;2023-10-31T11:23:01;15.90;95.50
36450;DHT22;22475;51.390;7.180;2023-10-31T11:25:32;15.80;95.40
36450;DHT22;22475;51.390;7.180;2023-10-31T11:28:12;15.90;95.40
36450;DHT22;22475;51.390;7.180;2023-10-31T11:30:40;15.80;95.40
36450;DHT22;22475;51.390;7.180;2023-10-31T11:33:11;15.80;95.40
36450;DHT22;22475;51.390;7.180;2023-10-31T11:35:39;15.80;95.30
36450;DHT22;22475;51.390;7.180;2023-10-31T11:38:07;15.90;95.40
36450;DHT22;22475;51.390;7.180;2023-10-31T11:40:34;15.90;95.40
36450;DHT22;22475;51.390;7.180;2023-10-31T11:43:04;15.90;95.40
36450;DHT22;22475;51.390;7.180;2023-10-31T11:45:34;15.90;95.50
36450;DHT22;22475;51.390;7.180;2023-10-31T11:48:01;15.90;95.40
36450;DHT22;22475;51.390;7.180;2023-10-31T11:50:30;15.90;95.40
36450;DHT22;22475;51.390;7.180;2023-10-31T11:53:04;15.90;95.40
36450;DHT22;22475;51.390;7.180;2023-10-31T11:55:33;15.90;95.40
36450;DHT22;22475;51.390;7.180;2023-10-31T11:58:18;15.90;95.40
36450;DHT22;22475;51.390;7.180;2023-10-31T12:00:48;15.90;95.40
36450;DHT22;22475;51.390;7.180;2023-10-31T12:03:16;15.90;95.40
36450;DHT22;22475;51.390;7.180;2023-10-31T12:05:53;15.90;95.30
36450;DHT22;22475;51.390;7.180;2023-10-31T12:08:27;15.90;95.30
36450;DHT22;22475;51.390;7.180;2023-10-31T12:11:03;15.90;95.30
36450;DHT22;22475;51.390;7.180;2023-10-31T12:13:30;15.90;95.30
36450;DHT22;22475;51.390;7.180;2023-10-31T12:15:58;15.90;95.30
36450;DHT22;22475;51.390;7.180;2023-10-31T12:18:26;15.90;95.40
36450;DHT22;22475;51.390;7.180;2023-10-31T12:20:53;15.90;95.30
36450;DHT22;22475;51.390;7.180;2023-10-31T12:23:19;15.90;95.30
36450;DHT22;22475;51.390;7.180;2023-10-31T12:25:47;15.90;95.20
36450;DHT22;22475;51.390;7.180;2023-10-31T12:28:16;15.90;95.20
36450;DHT22;22475;51.390;7.180;2023-10-31T12:30:44;15.90;95.20
36450;DHT22;22475;51.390;7.180;2023-10-31T12:33:13;15.90;95.20
36450;DHT22;22475;51.390;7.180;2023-10-31T12:35:40;15.90;95.20
36450;DHT22;22475;51.390;7.180;2023-10-31T12:38:10;15.90;95.20
36450;DHT22;22475;51.390;7.180;2023-10-31T12:40:37;15.90;95.20
36450;DHT22;22475;51.390;7.180;2023-10-31T12:43:05;15.90;95.20
36450;DHT22;22475;51.390;7.180;2023-10-31T12:45:32;15.90;95.30
36450;DHT22;22475;51.390;7.180;2023-10-31T12:48:03;15.90;95.30
36450;DHT22;22475;51.390;7.180;2023-10-31T12:50:32;15.90;95.20
36450;DHT22;22475;51.390;7.180;2023-10-31T12:52:59;15.90;95.20
36450;DHT22;22475;51.390;7.180;2023-10-31T12:55:29;15.90;95.20
36450;DHT22;22475;51.390;7.180;2023-10-31T12:57:57;15.90;95.20
36450;DHT22;22475;51.390;7.180;2023-10-31T13:00:31;15.90;95.20
36450;DHT22;22475;51.390;7.180;2023-10-31T13:03:02;15.90;95.10
36450;DHT22;22475;51.390;7.180;2023-10-31T13:05:31;15.90;95.10
36450;DHT22;22475;51.390;7.180;2023-10-31T13:07:58;15.90;95.40
36450;DHT22;22475;51.390;7.180;2023-10-31T13:10:27;15.90;95.10
36450;DHT22;22475;51.390;7.180;2023-10-31T13:12:54;15.90;95.10
36450;DHT22;22475;51.390;7.180;2023-10-31T13:15:22;15.90;95.10
36450;DHT22;22475;51.390;7.180;2023-10-31T13:17:50;16.00;95.20
36450;DHT22;22475;51.390;7.180;2023-10-31T13:20:18;16.00;95.20
36450;DHT22;22475;51.390;7.180;2023-10-31T13:22:46;15.90;95.20
36450;DHT22;22475;51.390;7.180;2023-10-31T13:25:15;15.90;95.50
36450;DHT22;22475;51.390;7.180;2023-10-31T13:27:43;15.90;95.20
36450;DHT22;22475;51.390;7.180;2023-10-31T13:30:10;15.90;95.10
36450;DHT22;22475;51.390;7.180;2023-10-31T13:32:39;16.00;95.10
36450;DHT22;22475;51.390;7.180;2023-10-31T13:35:06;15.90;95.10
36450;DHT22;22475;51.390;7.180;2023-10-31T13:37:34;16.00;95.20
36450;DHT22;22475;51.390;7.180;2023-10-31T13:40:03;16.00;95.20
36450;DHT22;22475;51.390;7.180;2023-10-31T13:42:30;16.00;95.20
36450;DHT22;22475;51.390;7.180;2023-10-31T13:44:57;15.90;95.20
36450;DHT22;22475;51.390;7.180;2023-10-31T13:47:24;16.00;95.20
36450;DHT22;22475;51.390;7.180;2023-10-31T13:49:51;16.00;95.10
36450;DHT22;22475;51.390;7.180;2023-10-31T13:52:18;16.00;95.10
36450;DHT22;22475;51.390;7.180;2023-10-31T13:54:44;16.00;95.00
36450;DHT22;22475;51.390;7.180;2023-10-31T13:57:13;16.00;95.00
36450;DHT22;22475;51.390;7.180;2023-10-31T13:59:40;16.00;95.00
36450;DHT22;22475;51.390;7.180;2023-10-31T14:02:06;15.90;94.90
36450;DHT22;22475;51.390;7.180;2023-10-31T14:04:34;15.90;94.90
36450;DHT22;22475;51.390;7.180;2023-10-31T14:07:01;15.90;94.90
36450;DHT22;22475;51.390;7.180;2023-10-31T14:09:27;15.90;94.90
36450;DHT22;22475;51.390;7.180;2023-10-31T14:11:55;15.90;94.90
36450;DHT22;22475;51.390;7.180;2023-10-31T14:14:24;15.90;94.90
36450;DHT22;22475;51.390;7.180;2023-10-31T14:16:51;16.00;95.00
36450;DHT22;22475;51.390;7.180;2023-10-31T14:19:18;16.00;95.00
36450;DHT22;22475;51.390;7.180;2023-10-31T14:21:45;16.00;95.00
36450;DHT22;22475;51.390;7.180;2023-10-31T14:24:11;16.00;95.00
36450;DHT22;22475;51.390;7.180;2023-10-31T14:26:38;15.90;95.00
36450;DHT22;22475;51.390;7.180;2023-10-31T14:29:06;15.90;95.00
36450;DHT22;22475;51.390;7.180;2023-10-31T14:31:38;15.90;95.10
36450;DHT22;22475;51.390;7.180;2023-10-31T14:34:05;16.00;95.10
36450;DHT22;22475;51.390;7.180;2023-10-31T14:36:32;16.00;95.10
36450;DHT22;22475;51.390;7.180;2023-10-31T14:38:59;16.00;95.10
36450;DHT22;22475;51.390;7.180;2023-10-31T14:41:25;15.90;95.10
36450;DHT22;22475;51.390;7.180;2023-10-31T14:43:52;15.90;95.20
36450;DHT22;22475;51.390;7.180;2023-10-31T14:46:19;16.00;95.20
36450;DHT22;22475;51.390;7.180;2023-10-31T14:48:47;16.00;95.20
36450;DHT22;22475;51.390;7.180;2023-10-31T14:51:15;16.00;95.20
36450;DHT22;22475;51.390;7.180;2023-10-31T14:53:41;16.00;95.20
36450;DHT22;22475;51.390;7.180;2023-10-31T14:56:08;16.00;95.30
36450;DHT22;22475;51.390;7.180;2023-10-31T14:58:35;16.00;95.30
36450;DHT22;22475;51.390;7.180;2023-10-31T15:01:02;16.00;95.30
36450;DHT22;22475;51.390;7.180;2023-10-31T15:03:30;16.00;95.30
36450;DHT22;22475;51.390;7.180;2023-10-31T15:05:58;16.00;95.30
36450;DHT22;22475;51.390;7.180;2023-10-31T15:08:25;16.00;95.30
36450;DHT22;22475;51.390;7.180;2023-10-31T15:10:52;16.00;95.30
36450;DHT22;22475;51.390;7.180;2023-10-31T15:13:20;15.90;95.30
36450;DHT22;22475;51.390;7.180;2023-10-31T15:15:48;16.00;95.40
36450;DHT22;22475;51.390;7.180;2023-10-31T15:18:14;16.00;95.30
36450;DHT22;22475;51.390;7.180;2023-10-31T15:20:41;16.00;95.40
36450;DHT22;22475;51.390;7.180;2023-10-31T15:23:10;16.00;95.40
36450;DHT22;22475;51.390;7.180;2023-10-31T15:25:39;16.00;95.40
36450;DHT22;22475;51.390;7.180;2023-10-31T15:28:06;16.00;95.40
36450;DHT22;22475;51.390;7.180;2023-10-31T15:30:33;15.90;95.30
36450;DHT22;22475;51.390;7.180;2023-10-31T15:33:00;16.00;95.40